Time;durP1;ratioP1;P1;durP2;ratioP2;P2;SDS_P1;SDS_P2;PMS_P1;PMS_P2;Temp;Humidity;BMP_temperature;BMP_pressure;BME280_temperature;BME280_humidity;BME280_pressure;Samples;Min_cycle;Max_cycle;Signal;HPM_P1;HPM_P2
2023/06/11 00:01:29;;;;;;;0.77;0.77;;;;;;;18.14;100.00;99449.22;5018842;28;20045;-94
2023/06/11 00:03:57;;;;;;;0.70;0.47;;;;;;;18.00;100.00;99433.31;5016972;28;20054;-93
2023/06/11 00:06:23;;;;;;;0.20;0.20;;;;;;;18.13;100.00;99447.66;5003186;28;20621;-93
2023/06/11 00:08:54;;;;;;;0.85;0.55;;;;;;;18.16;100.00;99435.44;5006430;28;20226;-93
2023/06/11 00:11:21;;;;;;;0.73;0.73;;;;;;;18.08;100.00;99435.13;4989077;28;20065;-93
2023/06/11 00:13:48;;;;;;;2.15;1.30;;;;;;;18.17;100.00;99445.38;4992263;28;20029;-94
2023/06/11 00:16:14;;;;;;;0.57;0.57;;;;;;;18.04;100.00;99436.66;5005687;28;20030;-94
2023/06/11 00:18:41;;;;;;;0.85;0.85;;;;;;;18.10;100.00;99432.63;5009835;28;20021;-93
2023/06/11 00:21:14;;;;;;;1.25;1.15;;;;;;;18.18;100.00;99438.50;5005960;28;20029;-93
2023/06/11 00:23:39;;;;;;;0.32;0.32;;;;;;;18.09;100.00;99433.09;4990386;28;20516;-92
2023/06/11 00:26:06;;;;;;;1.48;1.15;;;;;;;17.88;100.00;99412.06;5011956;28;20060;-93
2023/06/11 00:28:32;;;;;;;0.80;0.52;;;;;;;17.98;100.00;99431.03;4976493;28;20017;-93
2023/06/11 00:31:00;;;;;;;0.45;0.30;;;;;;;17.99;100.00;99437.41;5014301;28;20045;-94
2023/06/11 00:33:25;;;;;;;0.13;0.13;;;;;;;18.06;100.00;99431.31;5016140;28;20032;-93
2023/06/11 00:35:51;;;;;;;1.55;1.27;;;;;;;18.04;100.00;99437.41;5018594;28;20032;-94
2023/06/11 00:38:17;;;;;;;0.65;0.65;;;;;;;18.16;100.00;99443.84;5019886;28;20408;-93
2023/06/11 00:40:42;;;;;;;1.08;0.98;;;;;;;18.09;100.00;99433.09;5037392;28;20056;-94
2023/06/11 00:43:08;;;;;;;1.73;1.60;;;;;;;18.10;100.00;99434.66;5013734;28;20053;-93
2023/06/11 00:45:35;;;;;;;1.35;1.25;;;;;;;18.21;100.00;99453.56;5008918;28;20091;-93
2023/06/11 00:48:01;;;;;;;0.40;0.40;;;;;;;18.09;100.00;99430.28;5024818;28;20601;-93
2023/06/11 00:50:28;;;;;;;1.15;0.82;;;;;;;18.02;100.00;99430.78;5018035;28;20502;-92
2023/06/11 00:52:54;;;;;;;7.45;1.60;;;;;;;18.02;100.00;99442.78;5021158;28;20033;-95
2023/06/11 00:55:21;;;;;;;1.38;1.33;;;;;;;17.94;100.00;99422.06;4986599;28;20533;-94
2023/06/11 00:57:48;;;;;;;0.40;0.40;;;;;;;18.01;100.00;99432.81;5021324;28;20042;-94
2023/06/11 01:00:14;;;;;;;2.05;1.40;;;;;;;17.97;100.00;99428.72;5014484;28;20131;-93
2023/06/11 01:11:01;;;;;;;0.93;0.90;;;;;;;18.09;100.00;99442.28;5000937;28;20061;-95
2023/06/11 01:13:30;;;;;;;1.00;0.85;;;;;;;18.16;100.00;99452.25;4987285;28;20069;-95
2023/06/11 01:16:02;;;;;;;1.08;0.98;;;;;;;18.08;100.00;99445.59;4994025;28;20127;-94
2023/06/11 01:18:30;;;;;;;0.93;0.77;;;;;;;18.12;100.00;99452.50;4999374;28;20103;-95
2023/06/11 01:21:07;;;;;;;1.48;1.38;;;;;;;18.15;100.00;99456.38;4992054;28;20033;-94
2023/06/11 01:23:41;;;;;;;1.00;0.88;;;;;;;18.13;100.00;99456.84;4977671;28;20042;-95
2023/06/11 01:26:07;;;;;;;0.65;0.65;;;;;;;18.12;100.00;99446.91;4972511;28;20389;-95
2023/06/11 01:28:36;;;;;;;1.75;0.85;;;;;;;18.06;100.00;99445.34;5017133;28;20025;-95
2023/06/11 01:31:08;;;;;;;1.83;1.73;;;;;;;18.08;100.00;99448.41;4974778;28;20057;-95
2023/06/11 01:33:35;;;;;;;0.82;0.82;;;;;;;17.99;100.00;99443.00;4989602;28;20030;-95
2023/06/11 01:36:05;;;;;;;1.20;0.77;;;;;;;18.05;100.00;99452.22;4971658;28;20038;-95
2023/06/11 01:38:41;;;;;;;1.13;0.90;;;;;;;18.01;100.00;99449.66;4966939;28;20097;-95
2023/06/11 01:41:11;;;;;;;1.65;0.80;;;;;;;18.01;100.00;99460.09;4983019;28;20038;-94
2023/06/11 01:43:38;;;;;;;1.15;1.00;;;;;;;18.03;100.00;99455.53;5018182;28;20116;-94
2023/06/11 01:46:04;;;;;;;0.20;0.20;;;;;;;18.02;100.00;99439.97;4977106;28;20065;-95
2023/06/11 01:48:30;;;;;;;2.10;1.38;;;;;;;17.94;100.00;99438.13;4975058;28;20026;-95
2023/06/11 01:50:56;;;;;;;2.33;2.10;;;;;;;17.97;100.00;99437.13;4981545;28;20040;-96
2023/06/11 01:53:22;;;;;;;0.63;0.63;;;;;;;18.01;100.00;99449.66;4978253;28;20045;-96
2023/06/11 01:55:47;;;;;;;1.38;1.00;;;;;;;17.94;100.00;99430.50;4992620;28;20034;-95
2023/06/11 01:58:13;;;;;;;0.50;0.25;;;;;;;18.01;100.00;99446.84;4983838;28;20105;-95
2023/06/11 02:00:39;;;;;;;0.50;0.50;;;;;;;18.00;100.00;99445.31;5000695;28;20033;-96
2023/06/11 02:03:05;;;;;;;1.17;0.50;;;;;;;18.01;100.00;99443.28;4997615;28;20129;-95
2023/06/11 02:05:31;;;;;;;0.68;0.68;;;;;;;17.91;100.00;99439.16;4981093;28;20481;-96
2023/06/11 02:07:57;;;;;;;0.40;0.40;;;;;;;17.97;100.00;99445.53;4972925;28;20041;-95
2023/06/11 02:10:22;;;;;;;0.25;0.25;;;;;;;17.99;100.00;99457.81;4991133;28;20043;-95
2023/06/11 02:12:48;;;;;;;0.43;0.43;;;;;;;17.99;100.00;99460.63;4986672;28;20034;-96
2023/06/11 02:15:14;;;;;;;1.35;0.85;;;;;;;17.96;100.00;99455.22;4974236;28;20026;-94
2023/06/11 02:17:40;;;;;;;0.75;0.73;;;;;;;17.96;100.00;99444.78;4974419;28;20065;-96
2023/06/11 02:20:07;;;;;;;1.65;1.40;;;;;;;17.95;100.00;99460.09;4977953;28;20065;-96
2023/06/11 02:22:33;;;;;;;1.08;0.73;;;;;;;17.88;100.00;99460.53;4975414;28;20494;-95
2023/06/11 02:25:00;;;;;;;0.88;0.82;;;;;;;17.88;100.00;99463.34;5002423;28;20037;-96
2023/06/11 02:27:25;;;;;;;0.32;0.30;;;;;;;17.80;100.00;99447.47;4979582;28;20070;-94
2023/06/11 02:29:51;;;;;;;0.40;0.40;;;;;;;17.88;100.00;99465.38;4972263;28;20494;-95
2023/06/11 02:32:17;;;;;;;2.63;1.30;;;;;;;17.85;100.00;99466.38;4958954;28;20038;-95
2023/06/11 02:34:43;;;;;;;1.00;1.00;;;;;;;17.82;100.00;99473.00;4988418;28;20036;-96
2023/06/11 02:37:09;;;;;;;0.82;0.80;;;;;;;17.86;100.00;99473.53;4970851;28;20113;-94
2023/06/11 02:39:34;;;;;;;1.30;1.20;;;;;;;17.83;100.00;99480.94;4994891;28;20066;-94
2023/06/11 02:42:00;;;;;;;15.50;1.52;;;;;;;17.82;100.00;99478.63;4987296;28;20034;-95
2023/06/11 02:44:25;;;;;;;1.65;0.77;;;;;;;17.86;100.00;99481.97;4982341;28;20072;-93
2023/06/11 02:46:51;;;;;;;1.02;0.98;;;;;;;17.78;100.00;99475.28;4959806;28;20463;-93
2023/06/11 02:49:16;;;;;;;1.98;1.42;;;;;;;17.78;100.00;99480.88;4994400;28;20029;-95
2023/06/11 02:51:42;;;;;;;0.68;0.52;;;;;;;17.81;100.00;99482.69;4962102;28;20040;-94
2023/06/11 02:54:08;;;;;;;1.58;1.40;;;;;;;17.80;100.00;99472.72;4972283;28;20502;-93
2023/06/11 02:56:33;;;;;;;2.03;1.17;;;;;;;17.82;100.00;99476.59;4989762;28;20126;-94
2023/06/11 02:58:59;;;;;;;3.92;2.58;;;;;;;17.80;100.00;99476.31;4988168;28;20712;-94
2023/06/11 03:01:25;;;;;;;1.80;1.20;;;;;;;17.75;100.00;99473.47;4972907;28;20030;-93
2023/06/11 03:03:50;;;;;;;1.63;1.52;;;;;;;17.77;100.00;99482.91;4973465;28;20052;-94
2023/06/11 03:06:22;;;;;;;3.78;2.10;;;;;;;17.75;100.00;99479.09;4975421;28;20030;-93
2023/06/11 03:08:48;;;;;;;1.95;1.08;;;;;;;17.66;100.00;99480.03;4991552;28;20032;-93
2023/06/11 03:11:15;;;;;;;2.10;1.90;;;;;;;17.70;100.00;99494.59;4965065;28;20481;-95
2023/06/11 03:13:45;;;;;;;1.65;1.15;;;;;;;17.64;100.00;99488.94;4979010;28;20104;-94
2023/06/11 03:16:11;;;;;;;1.30;1.20;;;;;;;17.62;100.00;99494.28;4981432;28;20505;-96
2023/06/11 03:18:36;;;;;;;1.00;0.90;;;;;;;17.65;100.00;99498.91;4966703;28;20346;-94
2023/06/11 03:21:02;;;;;;;2.15;1.98;;;;;;;17.61;100.00;99486.38;4994104;28;20045;-96
2023/06/11 03:23:28;;;;;;;2.22;2.03;;;;;;;17.57;100.00;99489.41;4980150;28;20286;-93
2023/06/11 03:25:54;;;;;;;1.67;1.58;;;;;;;17.57;100.00;99480.19;4989151;28;20093;-93
2023/06/11 03:28:20;;;;;;;0.90;0.90;;;;;;;17.56;100.00;99487.81;4978590;28;20433;-94
2023/06/11 03:30:46;;;;;;;1.13;1.02;;;;;;;17.59;100.00;99489.66;4984199;28;20030;-94
2023/06/11 03:33:11;;;;;;;1.20;1.13;;;;;;;17.61;100.00;99492.75;5008201;28;20027;-94
2023/06/11 03:35:37;;;;;;;4.68;2.42;;;;;;;17.57;100.00;99491.41;5000185;28;20022;-94
2023/06/11 03:38:12;;;;;;;2.30;2.13;;;;;;;17.46;100.00;99486.50;4988300;28;20093;-94
2023/06/11 03:40:37;;;;;;;2.40;1.98;;;;;;;17.54;100.00;99492.41;4979398;28;20081;-95
2023/06/11 03:43:04;;;;;;;2.38;2.17;;;;;;;17.51;100.00;99499.03;4996703;28;20041;-94
2023/06/11 03:45:33;;;;;;;3.55;2.30;;;;;;;17.47;100.00;99495.69;4969590;28;20438;-94
2023/06/11 03:48:02;;;;;;;2.33;2.08;;;;;;;17.49;100.00;99510.72;4926606;28;20042;-95
2023/06/11 03:50:28;;;;;;;7.22;1.88;;;;;;;17.50;100.00;99511.50;4976997;28;20125;-93
2023/06/11 03:52:53;;;;;;;1.52;1.42;;;;;;;17.47;100.00;99504.81;4994303;28;20491;-94
2023/06/11 03:55:19;;;;;;;2.20;1.60;;;;;;;17.35;100.00;99500.38;4994827;28;20030;-95
2023/06/11 03:57:45;;;;;;;3.10;0.95;;;;;;;17.44;100.00;99517.03;4989858;28;20034;-94
2023/06/11 04:00:11;;;;;;;5.28;1.88;;;;;;;17.37;100.00;99514.69;4959085;28;20038;-94
2023/06/11 04:02:39;;;;;;;3.10;1.85;;;;;;;17.39;100.00;99503.00;4991823;28;20034;-95
2023/06/11 04:05:06;;;;;;;2.45;2.25;;;;;;;17.42;100.00;99499.19;4991850;28;20121;-96
2023/06/11 04:07:33;;;;;;;1.58;1.48;;;;;;;17.44;100.00;99505.84;4986486;28;20485;-95
2023/06/11 04:09:59;;;;;;;2.53;2.00;;;;;;;17.40;100.00;99505.28;5004153;28;20054;-95
2023/06/11 04:12:26;;;;;;;1.40;1.13;;;;;;;17.41;100.00;99501.22;4980943;28;20448;-95
2023/06/11 04:14:51;;;;;;;2.60;1.27;;;;;;;17.45;100.00;99507.38;4982752;28;20132;-95
2023/06/11 04:17:17;;;;;;;1.75;1.65;;;;;;;17.42;100.00;99497.16;5003380;28;20570;-95
2023/06/11 04:19:43;;;;;;;3.65;1.83;;;;;;;17.53;100.00;99513.28;4983931;28;20038;-94
2023/06/11 04:22:09;;;;;;;1.67;1.58;;;;;;;17.57;100.00;99520.25;4979800;28;20389;-95
2023/06/11 04:24:35;;;;;;;3.33;1.65;;;;;;;17.56;100.00;99512.28;4980911;28;20133;-95
2023/06/11 04:27:01;;;;;;;2.17;1.45;;;;;;;17.61;100.00;99514.41;4967263;28;20100;-94
2023/06/11 04:29:29;;;;;;;1.48;1.38;;;;;;;17.56;100.00;99513.06;4997076;28;20148;-95
2023/06/11 04:31:56;;;;;;;1.50;1.15;;;;;;;17.57;100.00;99523.06;5023255;28;20473;-93
2023/06/11 04:34:29;;;;;;;3.50;1.10;;;;;;;17.52;100.00;99511.75;4974902;28;20038;-94
2023/06/11 04:36:58;;;;;;;7.70;2.13;;;;;;;17.58;100.00;99518.22;4985664;28;20030;-94
2023/06/11 04:39:24;;;;;;;13.75;1.83;;;;;;;17.57;100.00;99513.84;4974072;28;20034;-95
2023/06/11 04:41:51;;;;;;;1.80;1.70;;;;;;;17.49;100.00;99510.72;4993704;28;20042;-95
2023/06/11 04:44:20;;;;;;;3.20;2.00;;;;;;;17.59;100.00;99528.91;4980602;28;20061;-95
2023/06/11 04:46:57;;;;;;;6.25;2.33;;;;;;;17.49;100.00;99519.13;5006636;28;20547;-95
2023/06/11 04:49:23;;;;;;;1.70;1.60;;;;;;;17.60;100.00;99546.53;4967135;28;20038;-94
2023/06/11 04:51:54;;;;;;;1.77;1.60;;;;;;;17.52;100.00;99520.16;4995918;28;20501;-96
2023/06/11 04:54:21;;;;;;;2.00;0.90;;;;;;;17.67;100.00;99530.00;4979361;28;20034;-95
2023/06/11 04:56:48;;;;;;;2.95;1.75;;;;;;;17.65;100.00;99534.59;4995405;28;20034;-95
2023/06/11 04:59:14;;;;;;;2.25;0.70;;;;;;;17.70;100.00;99540.25;4971035;28;20041;-94
2023/06/11 05:01:46;;;;;;;1.50;1.35;;;;;;;17.74;100.00;99533.63;4986407;28;20034;-94
2023/06/11 05:04:14;;;;;;;1.58;1.48;;;;;;;17.74;100.00;99533.63;4977137;28;20041;-93
2023/06/11 05:06:44;;;;;;;2.28;1.67;;;;;;;17.66;100.00;99531.28;4993868;28;20564;-94
2023/06/11 05:09:12;;;;;;;1.27;1.23;;;;;;;17.66;100.00;99539.72;4973390;28;20042;-93
2023/06/11 05:11:42;;;;;;;0.77;0.77;;;;;;;17.65;100.00;99529.75;4981397;28;20037;-94
2023/06/11 05:14:08;;;;;;;9.13;2.28;;;;;;;17.63;100.00;99532.28;4975517;28;20030;-94
2023/06/11 05:16:34;;;;;;;3.03;2.15;;;;;;;17.74;100.00;99544.84;4959296;28;20406;-94
2023/06/11 05:19:01;;;;;;;1.48;1.25;;;;;;;17.78;100.00;99542.59;4991015;28;20039;-93
2023/06/11 05:21:27;;;;;;;1.17;1.02;;;;;;;17.74;100.00;99523.19;5008740;28;20018;-94
2023/06/11 05:23:54;;;;;;;2.28;2.13;;;;;;;17.85;100.00;99544.94;4991525;28;20428;-95
2023/06/11 05:26:31;;;;;;;2.03;1.42;;;;;;;17.90;100.00;99547.03;5009979;28;20034;-94
2023/06/11 05:28:58;;;;;;;45.13;2.92;;;;;;;17.93;100.00;99541.19;4977713;28;20038;-94
2023/06/11 05:31:23;;;;;;;1.35;0.73;;;;;;;17.92;100.00;99544.47;4978100;28;20080;-92
2023/06/11 05:33:50;;;;;;;1.38;1.08;;;;;;;17.92;100.00;99534.03;4991372;28;20031;-95
2023/06/11 05:36:16;;;;;;;1.85;1.75;;;;;;;17.91;100.00;99529.69;4985066;28;20466;-95
2023/06/11 05:38:43;;;;;;;1.95;1.70;;;;;;;18.04;100.00;99540.47;4956408;28;20050;-94
2023/06/11 05:41:09;;;;;;;2.50;2.30;;;;;;;18.05;100.00;99542.03;4969121;28;20038;-94
2023/06/11 05:43:35;;;;;;;1.60;1.42;;;;;;;18.13;100.00;99559.94;4972708;28;20111;-94
2023/06/11 05:46:01;;;;;;;1.60;1.50;;;;;;;18.10;100.00;99556.09;4990355;28;20038;-95
2023/06/11 05:48:29;;;;;;;1.40;1.30;;;;;;;18.10;100.00;99555.34;4974398;28;20042;-93
2023/06/11 05:50:55;;;;;;;9.05;2.42;;;;;;;18.07;100.00;99547.91;4994841;28;20410;-96
2023/06/11 05:53:22;;;;;;;1.08;0.93;;;;;;;18.08;100.00;99560.66;4978397;28;20034;-95
2023/06/11 05:55:48;;;;;;;3.55;3.15;;;;;;;18.07;100.00;99567.56;4992428;28;20041;-95
2023/06/11 05:58:14;;;;;;;1.13;0.98;;;;;;;18.12;100.00;99558.41;4972252;28;20031;-95
2023/06/11 06:00:42;;;;;;;1.40;1.30;;;;;;;18.21;100.00;99565.84;4973485;28;20572;-95
2023/06/11 06:03:08;;;;;;;1.90;1.75;;;;;;;18.26;100.00;99579.94;4991317;28;20039;-94
2023/06/11 06:05:35;;;;;;;1.33;1.23;;;;;;;18.20;100.00;99564.34;5003170;28;20034;-96
2023/06/11 06:08:00;;;;;;;1.58;1.23;;;;;;;18.16;100.00;99564.53;4973157;28;20075;-96
2023/06/11 06:10:26;;;;;;;0.90;0.90;;;;;;;18.20;100.00;99575.56;4973873;28;20125;-95
2023/06/11 06:12:52;;;;;;;2.67;1.65;;;;;;;18.19;100.00;99586.03;4967709;28;20064;-93
2023/06/11 06:15:18;;;;;;;3.78;2.00;;;;;;;18.24;100.00;99582.47;4977905;28;20041;-95
2023/06/11 06:17:43;;;;;;;2.95;1.55;;;;;;;18.26;100.00;99579.16;4990652;28;20034;-94
2023/06/11 06:20:14;;;;;;;3.20;1.60;;;;;;;18.28;100.00;99580.19;4989540;28;20438;-93
2023/06/11 06:22:40;;;;;;;2.33;1.60;;;;;;;18.28;100.00;99588.59;4991988;28;20061;-93
2023/06/11 06:25:07;;;;;;;2.15;1.63;;;;;;;18.31;100.00;99582.03;4993825;28;20112;-93
2023/06/11 06:27:34;;;;;;;1.15;1.05;;;;;;;18.27;100.00;99587.09;4993755;28;20049;-93
2023/06/11 06:30:01;;;;;;;1.08;0.98;;;;;;;18.44;100.00;99602.00;4973500;28;20053;-92
2023/06/11 06:32:30;;;;;;;1.60;1.38;;;;;;;18.35;100.00;99599.41;4977444;28;20401;-92
2023/06/11 06:34:55;;;;;;;3.17;1.02;;;;;;;18.29;100.00;99595.78;5012837;28;20041;-93
2023/06/11 06:37:22;;;;;;;1.35;1.20;;;;;;;18.28;100.00;99585.06;4984681;28;20493;-93
2023/06/11 06:39:48;;;;;;;1.20;0.98;;;;;;;18.52;100.00;99614.31;4986335;28;20036;-93
2023/06/11 06:42:14;;;;;;;2.08;1.90;;;;;;;18.64;100.00;99610.31;4957647;28;20042;-93
2023/06/11 06:44:46;;;;;;;0.60;0.60;;;;;;;18.69;100.00;99605.22;5001615;28;20069;-94
2023/06/11 06:47:14;;;;;;;2.47;1.67;;;;;;;18.82;100.00;99611.16;4991518;28;20034;-94
2023/06/11 06:49:40;;;;;;;1.02;0.90;;;;;;;18.96;100.00;99613.81;4957975;28;20523;-93
2023/06/11 06:52:06;;;;;;;2.55;2.17;;;;;;;18.95;100.00;99612.25;4978822;28;20033;-93
2023/06/11 06:54:32;;;;;;;1.17;0.85;;;;;;;18.96;100.00;99618.66;4974245;28;20057;-94
2023/06/11 06:56:57;;;;;;;1.33;1.23;;;;;;;18.89;100.00;99619.88;4988166;28;20504;-94
2023/06/11 06:59:24;;;;;;;0.77;0.77;;;;;;;18.87;100.00;99628.06;4976046;28;20038;-94
2023/06/11 07:01:49;;;;;;;1.10;1.02;;;;;;;18.81;100.00;99623.66;4972627;28;20030;-94
2023/06/11 07:04:15;;;;;;;2.63;1.40;;;;;;;18.74;100.00;99621.34;4988576;28;20497;-93
2023/06/11 07:06:42;;;;;;;1.13;1.02;;;;;;;18.69;100.00;99622.06;4977590;28;20113;-94
2023/06/11 07:09:08;;;;;;;0.68;0.68;;;;;;;18.64;100.00;99621.53;4970221;28;20243;-94
2023/06/11 07:11:34;;;;;;;1.65;1.55;;;;;;;18.69;100.00;99608.03;4969654;28;20097;-95
2023/06/11 07:14:01;;;;;;;1.90;1.52;;;;;;;18.70;100.00;99618.78;4963701;28;20045;-95
2023/06/11 07:16:28;;;;;;;1.98;1.83;;;;;;;18.85;100.00;99615.78;4971426;28;20038;-94
2023/06/11 07:18:58;;;;;;;1.25;0.98;;;;;;;18.97;100.00;99608.91;4963111;28;20027;-95
2023/06/11 07:21:24;;;;;;;2.88;1.08;;;;;;;18.98;100.00;99587.97;4970963;28;20030;-94
2023/06/11 07:23:50;;;;;;;1.75;1.60;;;;;;;19.20;100.00;99621.81;4967983;28;20053;-93
2023/06/11 07:26:15;;;;;;;1.08;0.80;;;;;;;19.15;100.00;99614.13;4967339;28;20030;-94
2023/06/11 07:28:43;;;;;;;1.20;1.10;;;;;;;19.24;100.00;99627.97;4983247;28;20134;-94
2023/06/11 07:31:09;;;;;;;2.10;1.50;;;;;;;19.23;100.00;99617.97;4953325;28;20125;-95
2023/06/11 07:33:35;;;;;;;1.05;0.98;;;;;;;19.34;100.00;99626.44;4967700;28;20080;-95
2023/06/11 07:36:02;;;;;;;2.75;2.03;;;;;;;19.31;100.00;99621.84;4957725;28;20034;-94
2023/06/11 07:38:28;;;;;;;1.27;0.60;;;;;;;19.32;100.00;99625.41;4972228;28;20034;-95
2023/06/11 07:40:54;;;;;;;4.47;2.28;;;;;;;19.33;100.00;99618.53;4971532;28;20110;-94
2023/06/11 07:43:22;;;;;;;1.50;1.08;;;;;;;19.55;100.00;99629.84;4986828;28;20038;-94
2023/06/11 07:45:48;;;;;;;1.35;1.25;;;;;;;19.59;100.00;99621.94;4987204;28;20035;-94
2023/06/11 07:48:13;;;;;;;2.67;1.23;;;;;;;19.63;100.00;99625.25;4986860;28;20034;-94
2023/06/11 07:50:39;;;;;;;3.03;2.03;;;;;;;19.60;100.00;99639.56;4972141;28;20493;-93
2023/06/11 07:53:13;;;;;;;1.67;1.20;;;;;;;19.60;100.00;99636.75;4974508;28;20042;-95
2023/06/11 07:55:40;;;;;;;2.83;1.35;;;;;;;19.51;100.00;99616.03;4967573;28;20038;-93
2023/06/11 07:58:05;;;;;;;1.30;1.00;;;;;;;19.59;100.00;99629.59;4970549;28;20027;-94
2023/06/11 08:00:31;;;;;;;3.95;1.45;;;;;;;19.68;100.00;99638.56;4940640;28;20539;-94
2023/06/11 08:02:56;;;;;;;1.38;1.27;;;;;;;19.75;100.00;99643.69;4970449;28;20500;-94
2023/06/11 08:05:23;;;;;;;1.77;1.65;;;;;;;19.62;100.00;99640.59;4935428;28;20037;-93
2023/06/11 08:07:59;;;;;;;2.55;2.35;;;;;;;19.71;100.00;99628.34;4968380;28;20097;-93
2023/06/11 08:10:24;;;;;;;1.08;0.98;;;;;;;19.96;100.00;99661.88;4982736;28;20513;-94
2023/06/11 08:12:50;;;;;;;1.23;1.13;;;;;;;19.91;100.00;99642.16;4977535;28;20085;-94
2023/06/11 08:15:16;;;;;;;2.80;1.77;;;;;;;19.81;100.00;99624.78;4998522;28;20026;-93
2023/06/11 08:17:41;;;;;;;2.67;1.17;;;;;;;19.92;100.00;99646.53;4975617;28;20034;-93
2023/06/11 08:20:16;;;;;;;1.27;0.95;;;;;;;19.90;100.00;99643.44;4990425;28;20507;-93
2023/06/11 08:22:42;;;;;;;2.00;1.80;;;;;;;19.89;100.00;99631.44;4968501;28;20050;-93
2023/06/11 08:25:09;;;;;;;1.33;1.23;;;;;;;19.88;100.00;99641.16;5006841;28;20030;-94
2023/06/11 08:27:35;;;;;;;2.03;1.15;;;;;;;19.94;100.00;99641.13;4978280;28;20144;-93
2023/06/11 08:30:01;;;;;;;1.33;1.17;;;;;;;19.97;100.00;99648.59;4984999;28;20130;-94
2023/06/11 08:32:36;;;;;;;0.80;0.80;;;;;;;20.11;100.00;99647.53;4988495;28;20034;-94
2023/06/11 08:35:03;;;;;;;1.40;1.15;;;;;;;20.21;100.00;99650.88;4972518;28;20026;-95
2023/06/11 08:37:28;;;;;;;1.63;1.52;;;;;;;20.40;100.00;99643.47;4989529;28;20038;-95
2023/06/11 08:39:53;;;;;;;1.65;1.50;;;;;;;20.45;100.00;99640.66;4976641;28;20030;-93
2023/06/11 08:42:19;;;;;;;0.93;0.70;;;;;;;20.57;100.00;99644.22;4993061;28;20030;-93
2023/06/11 08:44:45;;;;;;;1.35;0.80;;;;;;;20.50;100.00;99643.97;4990011;28;20478;-94
2023/06/11 08:47:17;;;;;;;1.63;1.00;;;;;;;20.58;100.00;99648.56;4989303;28;20500;-94
2023/06/11 08:49:45;;;;;;;1.90;1.73;;;;;;;20.63;100.00;99644.19;4972653;28;20382;-94
2023/06/11 08:52:12;;;;;;;1.90;1.75;;;;;;;20.62;100.00;99643.44;4975383;28;20096;-93
2023/06/11 08:54:38;;;;;;;1.75;1.42;;;;;;;20.44;100.00;99639.13;4990512;28;20030;-94
2023/06/11 08:57:05;;;;;;;1.40;1.27;;;;;;;20.31;100.00;99638.88;4973278;28;20045;-93
2023/06/11 08:59:40;;;;;;;1.05;1.02;;;;;;;20.25;100.00;99643.72;4976636;28;20363;-93
2023/06/11 09:02:06;;;;;;;0.60;0.60;;;;;;;20.32;100.00;99643.22;4989232;28;20030;-94
2023/06/11 09:04:32;;;;;;;1.80;0.93;;;;;;;20.37;100.00;99631.19;4977974;28;20049;-93
2023/06/11 09:06:59;;;;;;;1.48;1.38;;;;;;;20.42;100.00;99638.84;4979608;28;20041;-96
2023/06/11 09:09:25;;;;;;;2.95;1.50;;;;;;;20.34;100.00;99620.94;4970680;28;20497;-96
2023/06/11 09:12:01;;;;;;;1.75;1.35;;;;;;;20.40;100.00;99641.44;4987551;28;20030;-95
2023/06/11 09:14:28;;;;;;;1.50;0.98;;;;;;;20.28;100.00;99627.84;5003206;28;20030;-96
2023/06/11 09:17:16;;;;;;;1.85;1.13;;;;;;;20.50;100.00;99658.84;5018062;28;20141;-96
2023/06/11 09:19:56;;;;;;;1.23;0.95;;;;;;;20.26;100.00;99622.69;4978586;28;20052;-94
2023/06/11 09:22:26;;;;;;;1.70;1.48;;;;;;;20.52;100.00;99647.81;4968157;28;20121;-93
2023/06/11 09:24:51;;;;;;;0.90;0.88;;;;;;;20.71;100.00;99654.41;4986692;28;20132;-90
2023/06/11 09:27:20;;;;;;;2.45;1.20;;;;;;;20.80;100.00;99639.28;4982807;28;20510;-96
2023/06/11 09:29:46;;;;;;;3.58;1.17;;;;;;;20.96;100.00;99646.91;4982206;28;20077;-92
2023/06/11 09:32:24;;;;;;;0.98;0.88;;;;;;;21.13;100.00;99644.06;4997386;28;20043;-94
2023/06/11 09:34:50;;;;;;;0.75;0.73;;;;;;;21.59;100.00;99657.44;4981442;28;20031;-93
2023/06/11 09:37:16;;;;;;;0.52;0.52;;;;;;;21.65;100.00;99649.69;4981112;28;20056;-93
2023/06/11 09:39:42;;;;;;;1.20;1.00;;;;;;;21.82;100.00;99653.94;4981770;28;20043;-92
2023/06/11 09:42:28;;;;;;;0.60;0.60;;;;;;;21.86;100.00;99643.13;4986415;28;20026;-93
2023/06/11 09:45:02;;;;;;;1.75;1.40;;;;;;;22.15;100.00;99658.59;4965455;28;20078;-92
2023/06/11 09:47:31;;;;;;;1.80;1.15;;;;;;;22.28;100.00;99658.00;4984950;28;20103;-92
2023/06/11 09:49:58;;;;;;;1.08;0.98;;;;;;;22.32;100.00;99673.34;4968718;28;20534;-94
2023/06/11 09:52:40;;;;;;;1.45;1.13;;;;;;;22.58;100.00;99666.44;5002944;28;20029;-93
2023/06/11 09:55:09;;;;;;;0.68;0.60;;;;;;;22.68;100.00;99676.13;4972890;28;20243;-93
2023/06/11 09:57:36;;;;;;;0.80;0.80;;;;;;;22.68;100.00;99667.63;4969961;28;20125;-93
2023/06/11 10:00:03;;;;;;;0.80;0.68;;;;;;;22.78;100.00;99668.81;4975612;28;20053;-92
2023/06/11 10:02:47;;;;;;;1.13;1.02;;;;;;;22.81;100.00;99664.19;4992913;28;20042;-94
2023/06/11 10:05:14;;;;;;;1.55;1.20;;;;;;;22.89;100.00;99668.69;4966732;28;20038;-93
2023/06/11 10:07:58;;;;;;;0.68;0.60;;;;;;;22.97;100.00;99660.41;5000361;28;20216;-92
2023/06/11 10:10:57;;;;;;;0.70;0.55;;;;;;;23.10;100.00;99661.25;4991561;28;20113;-93
2023/06/11 10:13:30;;;;;;;1.13;0.70;;;;;;;23.13;100.00;99671.50;4983102;28;20029;-93
2023/06/11 10:16:18;;;;;;;2.30;1.27;;;;;;;23.24;100.00;99665.72;4985581;28;20121;-91
2023/06/11 10:18:44;;;;;;;0.68;0.60;;;;;;;23.27;100.00;99680.09;5003508;28;20045;-94
2023/06/11 10:21:10;;;;;;;1.25;1.15;;;;;;;23.29;100.00;99663.38;4987779;28;20072;-91
2023/06/11 10:23:40;;;;;;;0.60;0.60;;;;;;;23.60;100.00;99671.97;4975550;28;20045;-90
2023/06/11 10:26:06;;;;;;;1.02;0.57;;;;;;;23.86;100.00;99667.75;4962274;28;20034;-93
2023/06/11 10:28:44;;;;;;;0.60;0.60;;;;;;;23.95;100.00;99658.84;4990256;28;20050;-92
2023/06/11 10:31:10;;;;;;;1.05;0.90;;;;;;;24.01;100.00;99663.13;4957808;28;20050;-93
2023/06/11 10:33:45;;;;;;;0.68;0.60;;;;;;;23.90;100.00;99663.28;4973019;28;20141;-93
2023/06/11 10:36:36;;;;;;;1.80;1.50;;;;;;;24.03;100.00;99666.16;4971984;28;20054;-92
2023/06/11 10:39:09;;;;;;;1.25;0.90;;;;;;;24.45;100.00;99658.81;4985969;28;20265;-91
2023/06/11 10:41:39;;;;;;;1.40;1.30;;;;;;;24.87;100.00;99667.63;4986108;28;20050;-92
2023/06/11 10:44:05;;;;;;;2.42;2.10;;;;;;;25.03;100.00;99658.75;4971279;28;20075;-91
2023/06/11 10:46:49;;;;;;;1.67;1.23;;;;;;;24.74;100.00;99654.16;4988231;28;20069;-91
2023/06/11 10:49:15;;;;;;;1.35;1.13;;;;;;;24.68;100.00;99641.38;4984738;28;20196;-92
2023/06/11 10:51:41;;;;;;;0.50;0.50;;;;;;;24.43;100.00;99658.56;4969927;28;20398;-90
2023/06/11 10:54:07;;;;;;;1.35;0.80;;;;;;;23.91;100.00;99653.47;4975381;28;20049;-91
2023/06/11 10:56:51;;;;;;;1.30;1.15;;;;;;;23.55;100.00;99640.91;4993487;28;20030;-90
2023/06/11 10:59:18;;;;;;;3.72;1.88;;;;;;;23.42;100.00;99660.59;4985079;28;20497;-91
2023/06/11 11:01:43;;;;;;;2.35;1.80;;;;;;;23.32;100.00;99653.81;4999642;23;20915;-89
2023/06/11 11:04:09;;;;;;;1.70;1.20;;;;;;;23.14;100.00;99655.31;4995990;28;20573;-92
2023/06/11 11:06:36;;;;;;;1.05;1.00;;;;;;;23.07;100.00;99651.03;5000268;28;20444;-90
2023/06/11 11:09:35;;;;;;;1.38;1.23;;;;;;;23.20;100.00;99636.19;4995346;28;20034;-91
2023/06/11 11:12:01;;;;;;;1.05;0.98;;;;;;;23.24;100.00;99642.31;4946448;28;20157;-90
2023/06/11 11:14:29;;;;;;;0.95;0.77;;;;;;;23.16;100.00;99647.81;4982751;28;20457;-90
2023/06/11 11:17:08;;;;;;;1.20;0.90;;;;;;;23.18;100.00;99636.72;4987864;28;20073;-90
2023/06/11 11:19:35;;;;;;;1.42;1.33;;;;;;;23.01;100.00;99619.19;4976378;28;20127;-91
2023/06/11 11:22:01;;;;;;;2.35;0.85;;;;;;;23.05;100.00;99641.53;4993144;28;20096;-92
2023/06/11 11:24:26;;;;;;;1.10;0.88;;;;;;;23.05;100.00;99625.31;5014135;28;20497;-90
2023/06/11 11:26:52;;;;;;;0.47;0.47;;;;;;;22.95;100.00;99635.47;4993811;28;20030;-90
2023/06/11 11:29:29;;;;;;;1.75;0.63;;;;;;;23.04;100.00;99618.16;4989943;28;20573;-90
2023/06/11 11:31:55;;;;;;;5.93;1.55;;;;;;;23.23;100.00;99635.91;5006070;28;20048;-90
2023/06/11 11:34:22;;;;;;;2.35;1.30;;;;;;;23.35;100.00;99630.84;4972656;28;20053;-92
2023/06/11 11:36:47;;;;;;;1.38;1.23;;;;;;;23.61;100.00;99624.59;4978819;28;20640;-91